createdAt,value
2019-01-26T00:01:12.298Z,94.70
2019-01-26T00:03:53.723Z,85.07
2019-01-26T00:06:34.367Z,93.97
2019-01-26T00:09:14.693Z,85.73
2019-01-26T00:11:56.021Z,85.93
2019-01-26T00:14:35.470Z,91.57
2019-01-26T00:17:16.450Z,87.10
2019-01-26T00:19:57.366Z,87.27
2019-01-26T00:22:38.314Z,89.67
2019-01-26T00:25:19.269Z,89.00
2019-01-26T00:27:59.959Z,82.37
2019-01-26T00:30:41.436Z,88.33
2019-01-26T00:33:22.467Z,86.03
2019-01-26T00:36:04.161Z,78.50
2019-01-26T00:38:44.951Z,75.17
2019-01-26T00:41:25.624Z,92.60
2019-01-26T00:44:06.564Z,84.60
2019-01-26T00:46:47.579Z,86.47
2019-01-26T00:49:28.163Z,87.40
2019-01-26T00:52:09.888Z,91.43
2019-01-26T00:54:50.737Z,88.93
2019-01-26T00:57:32.134Z,89.87
2019-01-26T01:00:12.756Z,89.20
2019-01-26T01:02:54.122Z,83.50
2019-01-26T01:05:35.605Z,85.93
2019-01-26T01:08:16.701Z,89.67
2019-01-26T01:10:58.261Z,86.10
2019-01-26T01:13:39.105Z,88.33
2019-01-26T01:16:20.044Z,84.33
2019-01-26T01:19:00.655Z,93.27
2019-01-26T01:21:41.819Z,82.30
2019-01-26T01:24:23.179Z,92.97
2019-01-26T01:27:04.746Z,85.77
2019-01-26T01:29:46.122Z,87.13
2019-01-26T01:32:26.807Z,97.03
2019-01-26T01:35:07.500Z,90.17
2019-01-26T01:37:48.837Z,102.20
2019-01-26T01:40:29.344Z,93.90
2019-01-26T01:43:10.635Z,90.70
2019-01-26T01:45:51.638Z,83.07
2019-01-26T01:48:32.613Z,91.27
2019-01-26T01:51:14.079Z,90.77
2019-01-26T01:53:54.894Z,98.70
2019-01-26T01:56:35.797Z,87.40
2019-01-26T01:59:17.166Z,91.13
2019-01-26T02:01:57.210Z,92.30
2019-01-26T02:04:37.875Z,93.33
2019-01-26T02:07:18.872Z,92.13
2019-01-26T02:10:00.178Z,92.63
2019-01-26T02:12:40.839Z,91.37
2019-01-26T02:15:22.051Z,92.90
2019-01-26T02:18:01.581Z,99.63
2019-01-26T02:20:42.894Z,97.33
2019-01-26T02:23:24.385Z,95.97
2019-01-26T02:26:05.783Z,94.57
2019-01-26T02:28:47.009Z,90.57
2019-01-26T02:31:26.522Z,97.70
2019-01-26T02:34:14.940Z,86.90
2019-01-26T02:36:56.057Z,87.63
2019-01-26T02:39:37.584Z,92.30
2019-01-26T02:42:18.662Z,90.47
2019-01-26T02:44:59.757Z,99.83
2019-01-26T02:47:39.394Z,86.20
2019-01-26T02:50:27.967Z,90.90
2019-01-26T02:53:07.534Z,87.43
2019-01-26T02:58:55.750Z,99.77
2019-01-26T03:01:35.425Z,88.27
2019-01-26T03:04:16.917Z,88.90
2019-01-26T03:06:57.547Z,90.63
2019-01-26T03:09:38.983Z,92.17
2019-01-26T03:12:19.695Z,93.20
2019-01-26T03:15:01.232Z,87.03
2019-01-26T03:17:41.747Z,81.27
2019-01-26T03:20:23.104Z,93.07
2019-01-26T03:23:04.582Z,93.70
2019-01-26T03:25:44.096Z,82.47
2019-01-26T03:28:32.515Z,85.43
2019-01-26T03:31:13.529Z,90.77
2019-01-26T03:33:54.072Z,82.20
2019-01-26T03:36:35.151Z,83.93
2019-01-26T03:39:16.507Z,88.97
2019-01-26T03:41:57.554Z,80.50
2019-01-26T03:44:38.924Z,83.53
2019-01-26T03:47:20.336Z,86.07
2019-01-26T03:50:00.979Z,74.63
2019-01-26T03:52:41.655Z,78.67
2019-01-26T03:55:22.880Z,77.43
2019-01-26T03:58:03.734Z,82.37
2019-01-26T04:00:44.429Z,87.67
2019-01-26T04:03:25.796Z,71.83
2019-01-26T04:06:06.482Z,77.33
2019-01-26T04:08:47.729Z,79.77
2019-01-26T04:11:28.340Z,80.40
2019-01-26T04:14:09.699Z,80.40
2019-01-26T04:16:50.967Z,83.10
2019-01-26T04:19:32.489Z,78.57
2019-01-26T04:22:12.351Z,77.07
2019-01-26T04:24:53.637Z,77.73
2019-01-26T04:27:34.988Z,81.00
2019-01-26T04:30:16.116Z,77.13
2019-01-26T04:32:57.600Z,79.63
2019-01-26T04:35:38.891Z,79.33
2019-01-26T04:38:20.037Z,77.57
2019-01-26T04:41:01.218Z,71.37
2019-01-26T04:43:42.556Z,77.70
2019-01-26T04:46:23.723Z,80.10
2019-01-26T04:49:04.513Z,78.53
2019-01-26T04:51:45.556Z,76.27
2019-01-26T04:54:27.087Z,82.97
2019-01-26T04:57:08.155Z,82.33
2019-01-26T04:59:48.993Z,71.47
2019-01-26T05:02:29.825Z,69.47
2019-01-26T05:05:11.061Z,84.57
2019-01-26T05:07:52.346Z,74.07
2019-01-26T05:10:33.828Z,77.30
2019-01-26T05:13:15.168Z,79.27
2019-01-26T05:15:55.885Z,75.70
2019-01-26T05:18:37.338Z,81.40
2019-01-26T05:21:18.804Z,70.97
2019-01-26T05:23:59.845Z,72.20
2019-01-26T05:26:40.383Z,77.87
2019-01-26T05:29:21.031Z,75.33
2019-01-26T05:32:02.581Z,70.83
2019-01-26T05:34:43.443Z,66.87
2019-01-26T05:37:24.784Z,70.27
2019-01-26T05:40:06.172Z,67.17
2019-01-26T05:42:47.309Z,64.13
2019-01-26T05:45:28.321Z,68.23
2019-01-26T05:48:09.687Z,64.20
2019-01-26T05:50:51.058Z,70.60
2019-01-26T05:53:32.446Z,63.10
2019-01-26T05:56:13.827Z,61.50
2019-01-26T05:58:54.308Z,69.67
2019-01-26T06:01:35.891Z,64.50
2019-01-26T06:04:17.342Z,70.87
2019-01-26T06:06:58.628Z,63.17
2019-01-26T06:09:39.930Z,64.17
2019-01-26T06:12:21.408Z,66.87
2019-01-26T06:15:02.911Z,64.77
2019-01-26T06:17:44.438Z,61.30
2019-01-26T06:20:25.095Z,61.13
2019-01-26T06:23:05.916Z,58.60
2019-01-26T06:25:47.280Z,65.53
2019-01-26T06:28:28.727Z,63.27
2019-01-26T06:31:08.622Z,64.23
2019-01-26T06:33:49.757Z,69.10
2019-01-26T06:36:30.446Z,66.00
2019-01-26T06:39:11.718Z,67.27
2019-01-26T06:41:52.435Z,63.90
2019-01-26T06:44:33.017Z,64.00
2019-01-26T06:47:13.687Z,65.20
2019-01-26T06:49:54.711Z,64.30
2019-01-26T06:52:35.445Z,63.53
2019-01-26T06:55:16.674Z,59.57
2019-01-26T06:57:57.426Z,73.27
2019-01-26T07:00:38.379Z,67.77
2019-01-26T07:03:19.683Z,63.43
2019-01-26T07:09:04.738Z,72.00
2019-01-26T07:11:46.148Z,73.50
2019-01-26T07:14:27.108Z,69.10
2019-01-26T07:17:08.391Z,67.43
2019-01-26T07:19:49.810Z,65.60
2019-01-26T07:22:31.247Z,66.13
2019-01-26T07:25:12.619Z,69.17
2019-01-26T07:27:54.098Z,74.67
2019-01-26T07:30:35.122Z,69.07
2019-01-26T07:33:14.877Z,63.97
2019-01-26T07:35:56.449Z,68.80
2019-01-26T07:38:37.157Z,62.70
2019-01-26T07:41:17.832Z,64.57
2019-01-26T07:43:59.166Z,69.93
2019-01-26T07:46:40.135Z,61.10
2019-01-26T07:49:21.645Z,73.47
2019-01-26T07:52:02.865Z,71.03
2019-01-26T07:54:44.002Z,67.30
2019-01-26T07:57:24.735Z,71.57
2019-01-26T08:00:06.095Z,72.37
2019-01-26T08:02:46.793Z,76.33
2019-01-26T08:05:26.919Z,70.73
2019-01-26T08:08:07.986Z,74.13
2019-01-26T08:10:49.287Z,70.50
2019-01-26T08:13:30.469Z,75.10
2019-01-26T08:16:11.620Z,75.07
2019-01-26T08:18:52.599Z,66.50
2019-01-26T08:21:32.033Z,63.93
2019-01-26T08:24:12.854Z,64.57
2019-01-26T08:26:54.372Z,71.83
2019-01-26T08:29:35.619Z,66.17
2019-01-26T08:32:17.208Z,67.17
2019-01-26T08:34:58.349Z,67.00
2019-01-26T08:37:39.890Z,69.37
2019-01-26T08:40:21.173Z,66.57
2019-01-26T08:43:02.122Z,69.03
2019-01-26T08:45:43.325Z,67.30
2019-01-26T08:48:31.043Z,69.63
2019-01-26T08:51:07.664Z,67.30
2019-01-26T08:53:47.412Z,62.47
2019-01-26T08:56:28.373Z,63.63
2019-01-26T08:59:09.314Z,65.70
2019-01-26T09:01:52.025Z,64.07
2019-01-26T09:04:34.060Z,61.97
2019-01-26T09:07:15.437Z,62.83
2019-01-26T09:09:56.520Z,60.20
2019-01-26T09:12:38.046Z,58.80
2019-01-26T09:15:19.512Z,58.10
2019-01-26T09:18:00.275Z,55.67
2019-01-26T09:20:41.524Z,59.20
2019-01-26T09:23:22.955Z,55.13
2019-01-26T09:26:03.657Z,49.17
2019-01-26T09:28:44.518Z,50.53
2019-01-26T09:31:25.958Z,54.10
2019-01-26T09:34:07.333Z,55.73
2019-01-26T09:36:48.606Z,57.63
2019-01-26T09:39:29.243Z,54.97
2019-01-26T09:42:09.944Z,55.80
2019-01-26T09:44:50.527Z,59.87
2019-01-26T09:47:30.069Z,56.57
2019-01-26T09:50:10.912Z,56.93
2019-01-26T09:52:52.378Z,53.83
2019-01-26T09:55:33.667Z,51.93
2019-01-26T09:58:14.931Z,55.20
2019-01-26T10:00:55.650Z,54.77
2019-01-26T10:03:36.356Z,59.13
2019-01-26T10:09:16.304Z,52.80
2019-01-26T10:11:57.376Z,52.20
2019-01-26T10:14:38.638Z,50.50
2019-01-26T10:17:19.460Z,49.00
2019-01-26T10:19:49.031Z,50.30
2019-01-26T10:25:37.610Z,49.77
2019-01-26T10:28:18.938Z,48.57
2019-01-26T10:31:00.534Z,51.77
2019-01-26T10:33:49.067Z,47.23
2019-01-26T10:39:24.539Z,52.03
2019-01-26T10:42:24.058Z,50.50
2019-01-26T10:45:05.470Z,45.27
2019-01-26T10:47:45.999Z,46.07
2019-01-26T10:50:27.364Z,46.27
2019-01-26T10:53:08.596Z,49.43
2019-01-26T10:55:49.359Z,48.20
2019-01-26T10:58:30.344Z,47.20
2019-01-26T11:01:10.926Z,43.60
2019-01-26T11:03:50.893Z,47.03
2019-01-26T11:06:31.813Z,48.07
2019-01-26T11:09:13.915Z,54.47
2019-01-26T11:11:55.102Z,49.37
2019-01-26T11:14:35.816Z,44.50
2019-01-26T11:17:17.184Z,50.67
2019-01-26T11:19:58.401Z,45.90
2019-01-26T11:22:39.710Z,49.73
2019-01-26T11:25:21.097Z,43.90
2019-01-26T11:28:02.122Z,49.00
2019-01-26T11:30:43.616Z,48.63
2019-01-26T11:33:24.986Z,46.37
2019-01-26T11:36:06.780Z,48.13
2019-01-26T11:38:47.902Z,51.13
2019-01-26T11:41:28.802Z,49.80
2019-01-26T11:44:10.264Z,53.63
2019-01-26T11:46:59.657Z,50.33
2019-01-26T11:49:46.353Z,49.77
2019-01-26T11:52:27.792Z,44.30
2019-01-26T11:58:05.892Z,52.23
2019-01-26T12:01:05.688Z,52.20
2019-01-26T12:04:08.863Z,48.90
2019-01-26T12:07:11.317Z,47.13
2019-01-26T12:09:52.359Z,49.93
2019-01-26T12:12:33.003Z,50.90
2019-01-26T12:15:14.038Z,48.47
2019-01-26T12:17:55.437Z,48.53
2019-01-26T12:20:36.892Z,46.23
2019-01-26T12:23:18.065Z,50.33
2019-01-26T12:25:58.895Z,47.57
2019-01-26T12:28:40.154Z,51.90
2019-01-26T12:31:20.968Z,50.73
2019-01-26T12:34:02.544Z,48.20
2019-01-26T12:36:43.994Z,54.63
2019-01-26T12:39:25.044Z,50.33
2019-01-26T12:42:06.340Z,50.30
2019-01-26T12:44:47.175Z,46.90
2019-01-26T12:47:27.834Z,46.63
2019-01-26T12:50:09.102Z,49.07
2019-01-26T12:52:48.719Z,49.07
2019-01-26T12:58:42.464Z,54.67
2019-01-26T13:01:23.860Z,54.30
2019-01-26T13:04:04.831Z,48.47
2019-01-26T13:06:45.488Z,51.27
2019-01-26T13:09:27.022Z,50.30
2019-01-26T13:12:08.298Z,54.10
2019-01-26T13:14:49.807Z,52.97
2019-01-26T13:17:29.492Z,52.57
2019-01-26T13:20:10.637Z,50.23
2019-01-26T13:22:51.282Z,52.50
2019-01-26T13:25:32.769Z,53.43
2019-01-26T13:28:14.342Z,52.80
2019-01-26T13:30:55.801Z,49.00
2019-01-26T13:33:37.177Z,54.73
2019-01-26T13:36:18.144Z,51.03
2019-01-26T13:38:59.769Z,50.27
2019-01-26T13:41:40.786Z,54.57
2019-01-26T13:44:21.569Z,51.37
2019-01-26T13:47:02.323Z,54.67
2019-01-26T13:49:44.194Z,52.23
2019-01-26T13:52:24.995Z,53.03
2019-01-26T13:55:05.716Z,53.17
2019-01-26T13:57:46.665Z,52.63
2019-01-26T14:00:27.947Z,55.57
2019-01-26T14:03:07.987Z,56.33
2019-01-26T14:05:56.429Z,55.77
2019-01-26T14:08:37.947Z,55.87
2019-01-26T14:11:19.406Z,56.60
2019-01-26T14:14:00.619Z,52.23
2019-01-26T14:16:41.800Z,55.30
2019-01-26T14:19:21.291Z,57.07
2019-01-26T14:22:09.841Z,55.80
2019-01-26T14:24:50.829Z,51.33
2019-01-26T14:27:31.998Z,57.80
2019-01-26T14:30:12.726Z,56.17
2019-01-26T14:32:54.281Z,59.97
2019-01-26T14:35:35.303Z,55.93
2019-01-26T14:38:16.844Z,54.20
2019-01-26T14:40:58.339Z,52.70
2019-01-26T14:43:39.257Z,55.53
2019-01-26T14:46:20.610Z,52.80
2019-01-26T14:49:01.196Z,54.90
2019-01-26T14:51:40.726Z,52.23
2019-01-26T14:54:29.344Z,56.47
2019-01-26T14:57:10.280Z,55.67
2019-01-26T14:59:51.721Z,58.57
2019-01-26T15:02:32.804Z,61.00
2019-01-26T15:05:12.964Z,56.60
2019-01-26T15:07:53.832Z,50.17
2019-01-26T15:10:34.838Z,45.40
2019-01-26T15:13:15.574Z,56.77
2019-01-26T15:15:55.224Z,60.57
2019-01-26T15:18:35.889Z,59.27
2019-01-26T15:21:16.498Z,57.03
2019-01-26T15:23:57.842Z,61.50
2019-01-26T15:26:38.549Z,56.50
2019-01-26T15:29:19.271Z,51.77
2019-01-26T15:31:59.874Z,55.13
2019-01-26T15:34:39.481Z,63.07
2019-01-26T15:40:26.528Z,65.83
2019-01-26T15:46:15.297Z,61.10
2019-01-26T15:48:56.750Z,69.90
2019-01-26T15:51:38.137Z,65.23
2019-01-26T15:54:19.259Z,69.80
2019-01-26T15:57:00.472Z,59.47
2019-01-26T15:59:41.583Z,63.43
2019-01-26T16:02:23.116Z,64.80
2019-01-26T16:05:04.233Z,69.00
2019-01-26T16:07:45.789Z,68.90
2019-01-26T16:10:26.628Z,66.63
2019-01-26T16:13:07.699Z,66.23
2019-01-26T16:15:49.088Z,75.03
2019-01-26T16:18:29.751Z,70.97
2019-01-26T16:21:11.596Z,69.37
2019-01-26T16:23:52.739Z,79.30
2019-01-26T16:26:32.724Z,70.53
2019-01-26T16:29:14.070Z,72.00
2019-01-26T16:31:55.627Z,72.37
2019-01-26T16:34:36.825Z,75.63
2019-01-26T16:37:18.108Z,69.17
2019-01-26T16:39:58.980Z,79.87
2019-01-26T16:42:40.417Z,74.63
2019-01-26T16:45:22.011Z,78.33
2019-01-26T16:48:03.122Z,72.23
2019-01-26T16:50:44.396Z,76.07
2019-01-26T16:53:25.820Z,77.80
2019-01-26T16:56:06.921Z,68.80
2019-01-26T16:58:46.479Z,66.80
2019-01-26T17:01:27.192Z,74.60
2019-01-26T17:04:06.860Z,68.67
2019-01-26T17:06:48.248Z,75.60
2019-01-26T17:09:27.713Z,81.53
2019-01-26T17:12:09.081Z,76.77
2019-01-26T17:14:50.337Z,66.57
2019-01-26T17:17:31.339Z,65.53
2019-01-26T17:20:12.763Z,67.67
2019-01-26T17:22:54.127Z,74.10
2019-01-26T17:25:33.597Z,76.57
2019-01-26T17:28:14.882Z,68.43
2019-01-26T17:30:56.343Z,71.23
2019-01-26T17:33:36.929Z,71.23
2019-01-26T17:36:17.800Z,72.47
2019-01-26T17:38:59.229Z,70.90
2019-01-26T17:41:39.143Z,68.37
2019-01-26T17:44:20.526Z,72.73
2019-01-26T17:47:01.429Z,75.70
2019-01-26T17:49:42.618Z,72.97
2019-01-26T17:52:24.110Z,89.80
2019-01-26T17:55:05.067Z,85.73
2019-01-26T17:57:45.940Z,85.17
2019-01-26T18:00:45.991Z,80.27
2019-01-26T18:03:25.472Z,79.27
2019-01-26T18:06:06.777Z,77.73
2019-01-26T18:08:48.134Z,86.63
2019-01-26T18:11:29.127Z,86.80
2019-01-26T18:14:10.118Z,85.47
2019-01-26T18:16:51.275Z,86.50
2019-01-26T18:19:32.262Z,86.07
2019-01-26T18:22:11.889Z,87.03
2019-01-26T18:25:00.301Z,87.47
2019-01-26T18:27:41.456Z,95.47
2019-01-26T18:30:22.445Z,90.47
2019-01-26T18:33:03.383Z,98.13
2019-01-26T18:35:44.616Z,98.37
2019-01-26T18:38:26.026Z,91.27
2019-01-26T18:41:07.620Z,98.73
2019-01-26T18:43:48.742Z,88.33
2019-01-26T18:46:29.391Z,93.27
2019-01-26T18:49:10.004Z,87.97
2019-01-26T18:51:49.596Z,84.30
2019-01-26T18:54:30.389Z,86.53
2019-01-26T18:57:11.774Z,95.27
2019-01-26T18:59:52.405Z,89.20
2019-01-26T19:02:33.967Z,93.17
2019-01-26T19:05:14.933Z,86.37
2019-01-26T19:07:56.123Z,88.30
2019-01-26T19:10:35.691Z,99.03
2019-01-26T19:13:24.202Z,90.20
2019-01-26T19:16:05.399Z,87.73
2019-01-26T19:18:46.620Z,84.23
2019-01-26T19:21:28.228Z,75.60
2019-01-26T19:24:09.323Z,82.00
2019-01-26T19:26:50.816Z,70.87
2019-01-26T19:29:30.330Z,85.33
2019-01-26T19:32:10.030Z,72.73
2019-01-26T19:38:04.110Z,79.53
2019-01-26T19:40:45.066Z,72.70
2019-01-26T19:43:26.658Z,80.03
2019-01-26T19:46:08.122Z,82.23
2019-01-26T19:48:49.703Z,71.70
2019-01-26T19:51:31.145Z,84.97
2019-01-26T19:54:12.873Z,74.37
2019-01-26T19:56:54.148Z,79.77
2019-01-26T19:59:35.616Z,79.97
2019-01-26T20:02:17.288Z,77.20
2019-01-26T20:04:57.588Z,74.10
2019-01-26T20:10:47.021Z,72.77
2019-01-26T20:13:28.261Z,77.30
2019-01-26T20:16:09.976Z,78.57
2019-01-26T20:18:51.433Z,72.43
2019-01-26T20:21:32.913Z,77.20
2019-01-26T20:24:14.212Z,79.40
2019-01-26T20:26:55.446Z,80.67
2019-01-26T20:29:36.734Z,83.07
2019-01-26T20:32:18.130Z,78.60
2019-01-26T20:34:59.519Z,76.33
2019-01-26T20:37:39.466Z,82.93
2019-01-26T20:43:30.585Z,76.63
2019-01-26T20:46:12.171Z,75.97
2019-01-26T20:48:53.475Z,87.37
2019-01-26T20:51:34.903Z,81.37
2019-01-26T20:54:15.968Z,84.87
2019-01-26T20:56:57.184Z,80.33
2019-01-26T20:59:40.071Z,75.20
2019-01-26T21:02:21.703Z,78.17
2019-01-26T21:05:02.936Z,77.60
2019-01-26T21:07:43.883Z,78.93
2019-01-26T21:10:25.579Z,79.77
2019-01-26T21:13:07.299Z,83.87
2019-01-26T21:15:48.854Z,82.90
2019-01-26T21:18:30.374Z,82.60
2019-01-26T21:21:12.087Z,86.53
2019-01-26T21:23:53.641Z,87.80
2019-01-26T21:26:34.740Z,83.40
2019-01-26T21:29:16.078Z,82.30
2019-01-26T21:31:57.231Z,85.00
2019-01-26T21:34:38.011Z,96.30
2019-01-26T21:37:18.650Z,104.87
2019-01-26T21:39:59.961Z,112.23
2019-01-26T21:42:41.236Z,109.27
2019-01-26T21:45:22.495Z,95.87
2019-01-26T21:48:03.659Z,113.23
2019-01-26T21:50:44.283Z,114.60
2019-01-26T21:53:25.096Z,107.53
2019-01-26T21:56:05.774Z,104.43
2019-01-26T21:58:46.906Z,99.73
2019-01-26T22:01:28.397Z,90.97
2019-01-26T22:04:09.441Z,89.83
2019-01-26T22:06:50.598Z,99.60
2019-01-26T22:09:31.521Z,97.60
2019-01-26T22:12:13.061Z,106.87
2019-01-26T22:14:53.769Z,104.47
2019-01-26T22:17:35.313Z,103.37
2019-01-26T22:20:16.506Z,110.47
2019-01-26T22:22:57.699Z,107.47
2019-01-26T22:25:38.934Z,106.80
2019-01-26T22:28:20.117Z,108.97
2019-01-26T22:31:01.352Z,111.80
2019-01-26T22:33:42.617Z,105.60
2019-01-26T22:36:24.005Z,112.57
2019-01-26T22:39:05.405Z,110.80
2019-01-26T22:41:46.727Z,114.27
2019-01-26T22:44:27.931Z,108.93
2019-01-26T22:47:09.285Z,109.63
2019-01-26T22:49:50.941Z,105.67
2019-01-26T22:52:31.945Z,114.77
2019-01-26T22:55:13.194Z,115.20
2019-01-26T22:57:54.279Z,115.87
2019-01-26T23:00:54.604Z,116.47
2019-01-26T23:03:35.258Z,111.50
2019-01-26T23:06:35.926Z,128.63
2019-01-26T23:09:16.617Z,122.47
2019-01-26T23:11:58.141Z,129.60
2019-01-26T23:14:39.298Z,132.30
2019-01-26T23:17:20.443Z,132.17
2019-01-26T23:20:01.837Z,138.17
2019-01-26T23:22:43.410Z,137.07
2019-01-26T23:25:24.402Z,133.70
2019-01-26T23:28:05.730Z,125.83
2019-01-26T23:30:46.351Z,126.00
2019-01-26T23:33:27.828Z,135.83
2019-01-26T23:36:09.129Z,142.33
2019-01-26T23:38:49.858Z,141.80
2019-01-26T23:41:30.551Z,141.47
2019-01-26T23:44:10.097Z,141.40
2019-01-26T23:46:51.358Z,146.17
2019-01-26T23:49:32.133Z,138.43
2019-01-26T23:52:13.104Z,135.67
2019-01-26T23:54:53.798Z,138.70
2019-01-26T23:57:34.973Z,139.13
